createdAt,value
2023-05-21T00:00:04.501Z,13.64
2023-05-21T00:01:04.417Z,13.63
2023-05-21T00:02:04.294Z,13.62
2023-05-21T00:03:04.349Z,13.64
2023-05-21T00:04:04.323Z,13.63
2023-05-21T00:05:04.126Z,13.62
2023-05-21T00:06:04.284Z,13.64
2023-05-21T00:07:04.018Z,13.63
2023-05-21T00:08:03.948Z,13.64
2023-05-21T00:09:03.854Z,13.63
2023-05-21T00:10:03.878Z,13.63
2023-05-21T00:11:03.806Z,13.64
2023-05-21T00:12:03.726Z,13.63
2023-05-21T00:13:03.619Z,13.62
2023-05-21T00:14:03.574Z,13.63
2023-05-21T00:15:03.537Z,13.63
2023-05-21T00:16:04.312Z,13.64
2023-05-21T00:17:03.426Z,13.62
2023-05-21T00:18:03.459Z,13.62
2023-05-21T00:19:03.268Z,13.57
2023-05-21T00:20:03.199Z,13.60
2023-05-21T00:21:03.235Z,13.60
2023-05-21T00:22:03.086Z,13.57
2023-05-21T00:23:03.027Z,13.57
2023-05-21T00:24:03.110Z,13.57
2023-05-21T00:25:02.894Z,13.59
2023-05-21T00:26:02.857Z,13.57
2023-05-21T00:27:02.738Z,13.57
2023-05-21T00:28:02.748Z,13.55
2023-05-21T00:29:02.643Z,13.54
2023-05-21T00:30:02.542Z,13.59
2023-05-21T00:31:02.563Z,13.55
2023-05-21T00:32:02.572Z,13.55
2023-05-21T00:33:02.748Z,13.55
2023-05-21T00:34:02.980Z,13.57
2023-05-21T00:35:02.270Z,13.55
2023-05-21T00:36:02.188Z,13.55
2023-05-21T00:37:02.129Z,13.54
2023-05-21T00:38:02.077Z,13.54
2023-05-21T00:39:02.004Z,13.54
2023-05-21T00:40:01.981Z,13.54
2023-05-21T00:41:01.928Z,13.52
2023-05-21T00:42:01.836Z,13.54
2023-05-21T00:43:01.820Z,13.52
2023-05-21T00:44:01.718Z,13.52
2023-05-21T00:45:01.666Z,13.54
2023-05-21T00:46:01.663Z,13.55
2023-05-21T00:47:01.532Z,13.52
2023-05-21T00:48:01.589Z,13.52
2023-05-21T00:49:01.361Z,13.51
2023-05-21T00:50:01.315Z,13.54
2023-05-21T00:51:01.257Z,13.51
2023-05-21T00:52:01.219Z,13.52
2023-05-21T00:53:01.153Z,13.54
2023-05-21T00:54:01.132Z,13.54
2023-05-21T00:55:01.062Z,13.54
2023-05-21T00:56:00.958Z,13.55
2023-05-21T00:57:00.929Z,13.59
2023-05-21T00:58:00.845Z,13.62
2023-05-21T00:59:00.766Z,13.60
2023-05-21T01:00:00.756Z,13.59
2023-05-21T01:01:01.610Z,13.57
2023-05-21T01:02:00.622Z,13.54
2023-05-21T01:03:00.595Z,13.54
2023-05-21T01:04:00.505Z,13.51
2023-05-21T01:05:00.407Z,13.49
2023-05-21T01:06:00.454Z,13.49
2023-05-21T01:07:00.263Z,13.48
2023-05-21T01:08:00.270Z,13.48
2023-05-21T01:09:00.140Z,13.51
2023-05-21T01:10:00.109Z,13.51
2023-05-21T01:11:00.102Z,13.51
2023-05-21T01:11:59.944Z,13.54
2023-05-21T01:12:59.934Z,13.55
2023-05-21T01:13:59.885Z,13.54
2023-05-21T01:14:59.787Z,13.52
2023-05-21T01:15:59.768Z,13.52
2023-05-21T01:17:00.260Z,13.54
2023-05-21T01:17:59.650Z,13.55
2023-05-21T01:18:59.826Z,13.52
2023-05-21T01:19:59.460Z,13.51
2023-05-21T01:20:59.374Z,13.49
2023-05-21T01:21:59.346Z,13.48
2023-05-21T01:22:59.293Z,13.48
2023-05-21T01:23:59.222Z,13.48
2023-05-21T01:24:59.321Z,13.51
2023-05-21T01:25:59.094Z,13.49
2023-05-21T01:26:59.139Z,13.51
2023-05-21T01:27:58.952Z,13.49
2023-05-21T01:28:58.906Z,13.52
2023-05-21T01:29:58.780Z,13.49
2023-05-21T01:30:58.804Z,13.48
2023-05-21T01:31:58.684Z,13.48
2023-05-21T01:32:58.815Z,13.46
2023-05-21T01:33:58.679Z,13.48
2023-05-21T01:34:58.508Z,13.48
2023-05-21T01:35:58.465Z,13.48
2023-05-21T01:36:58.416Z,13.48
2023-05-21T01:37:58.348Z,13.49
2023-05-21T01:38:58.293Z,13.49
2023-05-21T01:39:58.206Z,13.51
2023-05-21T01:40:58.182Z,13.49
2023-05-21T01:41:58.157Z,13.48
2023-05-21T01:42:58.039Z,13.48
2023-05-21T01:43:57.988Z,13.46
2023-05-21T01:44:57.897Z,13.46
2023-05-21T01:45:57.808Z,13.48
2023-05-21T01:46:57.790Z,13.46
2023-05-21T01:47:57.770Z,13.48
2023-05-21T01:48:57.677Z,13.46
2023-05-21T01:49:57.555Z,13.45
2023-05-21T01:50:57.511Z,13.48
2023-05-21T01:51:57.485Z,13.46
2023-05-21T01:52:57.410Z,13.46
2023-05-21T01:53:57.387Z,13.46
2023-05-21T01:54:57.285Z,13.46
2023-05-21T01:55:57.236Z,13.46
2023-05-21T01:56:57.137Z,13.46
2023-05-21T01:57:57.102Z,13.45
2023-05-21T01:58:57.078Z,13.44
2023-05-21T01:59:57.020Z,13.46
2023-05-21T02:00:57.785Z,13.45
2023-05-21T02:01:57.821Z,13.44
2023-05-21T02:02:56.962Z,13.45
2023-05-21T02:03:56.777Z,13.42
2023-05-21T02:04:56.638Z,13.42
2023-05-21T02:05:56.586Z,13.42
2023-05-21T02:06:56.518Z,13.42
2023-05-21T02:07:56.497Z,13.41
2023-05-21T02:08:56.451Z,13.44
2023-05-21T02:09:56.360Z,13.42
2023-05-21T02:10:56.265Z,13.45
2023-05-21T02:11:56.247Z,13.45
2023-05-21T02:12:56.152Z,13.45
2023-05-21T02:13:56.087Z,13.44
2023-05-21T02:14:55.993Z,13.41
2023-05-21T02:15:56.038Z,13.39
2023-05-21T02:16:55.905Z,13.39
2023-05-21T02:17:55.962Z,13.44
2023-05-21T02:18:55.831Z,13.44
2023-05-21T02:19:55.735Z,13.42
2023-05-21T02:20:55.675Z,13.45
2023-05-21T02:21:56.481Z,13.41
2023-05-21T02:22:55.498Z,13.41
2023-05-21T02:23:55.495Z,13.45
2023-05-21T02:24:55.408Z,13.44
2023-05-21T02:25:55.340Z,13.42
2023-05-21T02:26:55.422Z,13.39
2023-05-21T02:27:55.211Z,13.36
2023-05-21T02:28:55.177Z,13.33
2023-05-21T02:29:55.110Z,13.33
2023-05-21T02:30:55.148Z,13.32
2023-05-21T02:31:55.006Z,13.29
2023-05-21T02:32:55.044Z,13.29
2023-05-21T02:33:55.840Z,13.26
2023-05-21T02:34:54.768Z,13.28
2023-05-21T02:35:54.760Z,13.28
2023-05-21T02:36:54.725Z,13.28
2023-05-21T02:37:54.629Z,13.28
2023-05-21T02:38:54.749Z,13.26
2023-05-21T02:39:54.461Z,13.28
2023-05-21T02:40:54.389Z,13.29
2023-05-21T02:41:54.360Z,13.29
2023-05-21T02:42:54.313Z,13.26
2023-05-21T02:43:54.236Z,13.25
2023-05-21T02:44:54.196Z,13.26
2023-05-21T02:45:54.164Z,13.25
2023-05-21T02:46:54.796Z,13.29
2023-05-21T02:47:54.765Z,13.26
2023-05-21T02:48:53.906Z,13.25
2023-05-21T02:49:54.017Z,13.25
2023-05-21T02:50:53.766Z,13.25
2023-05-21T02:51:53.743Z,13.23
2023-05-21T02:52:53.627Z,13.22
2023-05-21T02:53:53.582Z,13.22
2023-05-21T02:54:53.492Z,13.23
2023-05-21T02:55:53.419Z,13.26
2023-05-21T02:56:53.371Z,13.25
2023-05-21T02:57:53.283Z,13.26
2023-05-21T02:58:53.261Z,13.26
2023-05-21T02:59:53.247Z,13.25
2023-05-21T03:00:54.018Z,13.26
2023-05-21T03:01:53.081Z,13.29
2023-05-21T03:02:53.138Z,13.28
2023-05-21T03:03:52.903Z,13.28
2023-05-21T03:04:53.738Z,13.28
2023-05-21T03:05:52.930Z,13.29
2023-05-21T03:06:52.756Z,13.30
2023-05-21T03:07:52.723Z,13.29
2023-05-21T03:08:52.629Z,13.28
2023-05-21T03:09:52.566Z,13.28
2023-05-21T03:10:52.535Z,13.29
2023-05-21T03:11:52.440Z,13.28
2023-05-21T03:12:52.387Z,13.28
2023-05-21T03:13:52.295Z,13.29
2023-05-21T03:14:52.254Z,13.30
2023-05-21T03:15:52.154Z,13.32
2023-05-21T03:16:52.178Z,13.30
2023-05-21T03:17:52.174Z,13.30
2023-05-21T03:18:52.868Z,13.33
2023-05-21T03:19:51.985Z,13.30
2023-05-21T03:20:51.820Z,13.30
2023-05-21T03:21:53.254Z,13.28
2023-05-21T03:22:51.785Z,13.28
2023-05-21T03:23:51.686Z,13.28
2023-05-21T03:24:51.636Z,13.26
2023-05-21T03:25:51.514Z,13.26
2023-05-21T03:26:51.521Z,13.28
2023-05-21T03:27:51.412Z,13.28
2023-05-21T03:28:51.417Z,13.28
2023-05-21T03:29:51.313Z,13.25
2023-05-21T03:30:51.378Z,13.22
2023-05-21T03:31:51.174Z,13.20
2023-05-21T03:32:51.118Z,13.17
2023-05-21T03:33:51.057Z,13.15
2023-05-21T03:34:50.962Z,13.15
2023-05-21T03:35:50.942Z,13.14
2023-05-21T03:36:50.967Z,13.12
2023-05-21T03:37:50.832Z,13.14
2023-05-21T03:38:50.752Z,13.14
2023-05-21T03:39:50.691Z,13.14
2023-05-21T03:40:50.599Z,13.15
2023-05-21T03:41:50.563Z,13.14
2023-05-21T03:42:50.535Z,13.14
2023-05-21T03:43:50.452Z,13.14
2023-05-21T03:44:50.376Z,13.11
2023-05-21T03:45:50.315Z,13.11
2023-05-21T03:46:50.288Z,13.11
2023-05-21T03:47:50.245Z,13.08
2023-05-21T03:48:50.126Z,13.08
2023-05-21T03:49:50.013Z,13.08
2023-05-21T03:50:49.984Z,13.08
2023-05-21T03:51:49.885Z,13.11
2023-05-21T03:52:49.847Z,13.12
2023-05-21T03:53:50.982Z,13.12
2023-05-21T03:54:49.734Z,13.17
2023-05-21T03:55:49.686Z,13.17
2023-05-21T03:56:49.631Z,13.17
2023-05-21T03:57:49.608Z,13.19
2023-05-21T03:58:49.508Z,13.20
2023-05-21T03:59:49.423Z,13.20
2023-05-21T04:00:49.397Z,13.22
2023-05-21T04:01:49.345Z,13.23
2023-05-21T04:02:49.278Z,13.23
2023-05-21T04:03:49.398Z,13.26
2023-05-21T04:04:49.269Z,13.25
2023-05-21T04:05:49.047Z,13.25
2023-05-21T04:06:49.004Z,13.25
2023-05-21T04:07:48.943Z,13.26
2023-05-21T04:08:48.879Z,13.28
2023-05-21T04:09:48.846Z,13.29
2023-05-21T04:10:48.727Z,13.29
2023-05-21T04:11:48.729Z,13.29
2023-05-21T04:12:48.643Z,13.29
2023-05-21T04:13:48.576Z,13.29
2023-05-21T04:14:48.524Z,13.33
2023-05-21T04:15:48.442Z,13.36
2023-05-21T04:16:48.386Z,13.36
2023-05-21T04:17:48.358Z,13.33
2023-05-21T04:18:48.282Z,13.38
2023-05-21T04:19:48.232Z,13.38
2023-05-21T04:20:48.163Z,13.41
2023-05-21T04:21:48.064Z,13.41
2023-05-21T04:22:47.986Z,13.41
2023-05-21T04:23:47.989Z,13.42
2023-05-21T04:24:47.886Z,13.45
2023-05-21T04:25:47.793Z,13.46
2023-05-21T04:26:48.969Z,13.49
2023-05-21T04:27:47.791Z,13.51
2023-05-21T04:28:47.651Z,13.52
2023-05-21T04:29:48.958Z,13.55
2023-05-21T04:30:47.535Z,13.54
2023-05-21T04:31:47.510Z,13.54
2023-05-21T04:32:47.407Z,13.57
2023-05-21T04:33:47.319Z,13.55
2023-05-21T04:34:47.240Z,13.62
2023-05-21T04:35:47.410Z,13.60
2023-05-21T04:36:47.756Z,13.63
2023-05-21T04:37:47.221Z,13.63
2023-05-21T04:38:47.013Z,13.66
2023-05-21T04:39:46.902Z,13.67
2023-05-21T04:40:46.884Z,13.69
2023-05-21T04:41:46.781Z,13.70
2023-05-21T04:42:46.767Z,13.73
2023-05-21T04:43:46.834Z,13.73
2023-05-21T04:44:46.615Z,13.75
2023-05-21T04:45:46.545Z,13.75
2023-05-21T04:46:46.506Z,13.75
2023-05-21T04:47:46.495Z,13.75
2023-05-21T04:48:46.364Z,13.78
2023-05-21T04:49:46.368Z,13.79
2023-05-21T04:50:46.221Z,13.79
2023-05-21T04:51:46.198Z,13.82
2023-05-21T04:52:46.178Z,13.79
2023-05-21T04:53:46.079Z,13.81
2023-05-21T04:54:46.019Z,13.82
2023-05-21T04:55:46.167Z,13.82
2023-05-21T04:56:46.748Z,13.85
2023-05-21T04:57:45.793Z,13.84
2023-05-21T04:58:45.723Z,13.85
2023-05-21T04:59:45.702Z,13.88
2023-05-21T05:00:45.721Z,13.88
2023-05-21T05:01:45.625Z,13.88
2023-05-21T05:02:45.564Z,13.91
2023-05-21T05:03:45.444Z,13.95
2023-05-21T05:04:45.343Z,13.95
2023-05-21T05:05:45.305Z,13.97
2023-05-21T05:06:45.300Z,13.99
2023-05-21T05:07:45.181Z,14.03
2023-05-21T05:08:45.090Z,14.04
2023-05-21T05:09:45.049Z,14.03
2023-05-21T05:10:45.050Z,14.07
2023-05-21T05:11:44.953Z,14.09
2023-05-21T05:12:44.861Z,14.09
2023-05-21T05:13:44.831Z,14.10
2023-05-21T05:14:45.246Z,14.14
2023-05-21T05:15:44.703Z,14.17
2023-05-21T05:16:44.734Z,14.15
2023-05-21T05:17:45.264Z,14.17
2023-05-21T05:18:44.541Z,14.18
2023-05-21T05:19:44.410Z,14.21
2023-05-21T05:20:44.371Z,14.22
2023-05-21T05:21:44.387Z,14.25
2023-05-21T05:22:44.271Z,14.27
2023-05-21T05:23:44.214Z,14.29
2023-05-21T05:24:44.119Z,14.33
2023-05-21T05:25:44.085Z,14.36
2023-05-21T05:26:44.000Z,14.42
2023-05-21T05:27:43.924Z,14.43
2023-05-21T05:28:43.914Z,14.47
2023-05-21T05:29:43.855Z,14.51
2023-05-21T05:30:43.780Z,14.54
2023-05-21T05:31:43.667Z,14.57
2023-05-21T05:32:44.540Z,14.61
2023-05-21T05:33:43.633Z,14.64
2023-05-21T05:34:43.527Z,14.69
2023-05-21T05:35:43.488Z,14.69
2023-05-21T05:36:43.429Z,14.68
2023-05-21T05:37:43.289Z,14.69
2023-05-21T05:38:43.300Z,14.73
2023-05-21T05:39:43.240Z,14.78
2023-05-21T05:40:43.184Z,14.81
2023-05-21T05:41:43.120Z,14.86
2023-05-21T05:42:43.023Z,14.91
2023-05-21T05:43:42.927Z,14.92
2023-05-21T05:44:42.900Z,14.94
2023-05-21T05:45:42.789Z,15.02
2023-05-21T05:46:42.851Z,15.09
2023-05-21T05:47:42.737Z,15.10
2023-05-21T05:48:42.651Z,15.14
2023-05-21T05:49:42.586Z,15.17
2023-05-21T05:50:42.505Z,15.20
2023-05-21T05:51:42.489Z,15.19
2023-05-21T05:52:42.355Z,15.21
2023-05-21T05:53:42.339Z,15.27
2023-05-21T05:54:42.330Z,15.31
2023-05-21T05:55:42.163Z,15.34
2023-05-21T05:56:42.156Z,15.38
2023-05-21T05:57:43.772Z,15.41
2023-05-21T05:58:42.029Z,15.46
2023-05-21T05:59:41.937Z,15.53
2023-05-21T06:00:41.883Z,15.56
2023-05-21T06:01:42.049Z,15.54
2023-05-21T06:02:41.833Z,15.56
2023-05-21T06:03:41.936Z,15.56
2023-05-21T06:04:41.635Z,15.59
2023-05-21T06:05:41.664Z,15.60
2023-05-21T06:06:41.531Z,15.62
2023-05-21T06:07:41.461Z,15.59
2023-05-21T06:08:41.403Z,15.60
2023-05-21T06:09:41.396Z,15.65
2023-05-21T06:10:41.236Z,15.67
2023-05-21T06:11:41.195Z,15.69
2023-05-21T06:12:41.134Z,15.72
2023-05-21T06:13:41.064Z,15.72
2023-05-21T06:14:41.819Z,15.75
2023-05-21T06:15:41.052Z,15.76
2023-05-21T06:16:41.528Z,15.78
2023-05-21T06:17:40.872Z,15.78
2023-05-21T06:18:40.812Z,15.80
2023-05-21T06:19:41.453Z,15.80
2023-05-21T06:20:40.640Z,15.82
2023-05-21T06:21:41.480Z,15.82
2023-05-21T06:22:40.565Z,15.82
2023-05-21T06:23:40.517Z,15.83
2023-05-21T06:24:40.966Z,15.86
2023-05-21T06:25:40.405Z,15.84
2023-05-21T06:26:40.298Z,15.86
2023-05-21T06:27:40.267Z,15.89
2023-05-21T06:28:40.196Z,15.90
2023-05-21T06:29:40.773Z,15.92
2023-05-21T06:30:40.023Z,15.96
2023-05-21T06:31:39.969Z,15.97
2023-05-21T06:32:40.035Z,15.97
2023-05-21T06:33:39.910Z,16.00
2023-05-21T06:34:39.775Z,16.01
2023-05-21T06:35:39.710Z,16.02
2023-05-21T06:36:39.638Z,16.05
2023-05-21T06:37:39.623Z,16.09
2023-05-21T06:38:39.562Z,16.11
2023-05-21T06:39:40.767Z,16.17
2023-05-21T06:40:39.492Z,16.23
2023-05-21T06:41:39.353Z,16.25
2023-05-21T06:42:39.340Z,16.28
2023-05-21T06:43:39.237Z,16.33
2023-05-21T06:44:39.163Z,16.39
2023-05-21T06:45:39.391Z,16.45
2023-05-21T06:46:39.103Z,16.52
2023-05-21T06:47:39.073Z,16.56
2023-05-21T06:48:38.937Z,16.56
2023-05-21T06:49:38.857Z,16.58
2023-05-21T06:50:38.834Z,16.61
2023-05-21T06:51:38.804Z,16.61
2023-05-21T06:52:38.724Z,16.63
2023-05-21T06:53:38.578Z,16.64
2023-05-21T06:54:38.545Z,16.64
2023-05-21T06:55:38.705Z,16.66
2023-05-21T06:56:38.418Z,16.68
2023-05-21T06:57:38.387Z,16.70
2023-05-21T06:58:38.356Z,16.76
2023-05-21T06:59:38.258Z,16.88
2023-05-21T07:00:38.262Z,17.06
2023-05-21T07:01:38.264Z,17.18
2023-05-21T07:02:38.114Z,17.26
2023-05-21T07:03:38.034Z,17.33
2023-05-21T07:04:37.937Z,17.38
2023-05-21T07:05:38.327Z,17.46
2023-05-21T07:06:37.834Z,17.49
2023-05-21T07:07:37.761Z,17.52
2023-05-21T07:08:37.665Z,17.52
2023-05-21T07:09:37.681Z,17.41
2023-05-21T07:10:37.634Z,17.38
2023-05-21T07:11:37.558Z,17.37
2023-05-21T07:12:37.424Z,17.31
2023-05-21T07:13:37.455Z,17.31
2023-05-21T07:14:37.326Z,17.36
2023-05-21T07:15:38.324Z,17.40
2023-05-21T07:16:37.303Z,17.44
2023-05-21T07:17:37.222Z,17.52
2023-05-21T07:18:37.098Z,17.64
2023-05-21T07:19:37.033Z,17.82
2023-05-21T07:20:39.330Z,18.08
2023-05-21T07:21:36.910Z,18.32
2023-05-21T07:22:36.811Z,18.57
2023-05-21T07:23:36.776Z,18.81
2023-05-21T07:24:36.721Z,19.02
2023-05-21T07:25:36.852Z,19.10
2023-05-21T07:26:36.600Z,19.16
2023-05-21T07:27:36.551Z,19.21
2023-05-21T07:28:36.511Z,19.16
2023-05-21T07:29:36.410Z,19.08
2023-05-21T07:30:36.294Z,18.95
2023-05-21T07:31:36.331Z,18.91
2023-05-21T07:32:36.248Z,18.85
2023-05-21T07:33:36.151Z,18.70
2023-05-21T07:34:36.096Z,18.63
2023-05-21T07:35:36.425Z,18.58
2023-05-21T07:36:36.023Z,18.62
2023-05-21T07:37:35.970Z,18.65
2023-05-21T07:38:35.817Z,18.60
2023-05-21T07:39:35.803Z,18.66
2023-05-21T07:40:35.734Z,18.81
2023-05-21T07:41:35.684Z,18.99
2023-05-21T07:42:35.596Z,19.02
2023-05-21T07:43:35.608Z,19.10
2023-05-21T07:44:35.494Z,19.16
2023-05-21T07:45:35.617Z,19.25
2023-05-21T07:46:35.396Z,19.32
2023-05-21T07:47:35.332Z,19.31
2023-05-21T07:48:35.839Z,19.22
2023-05-21T07:49:35.152Z,19.28
2023-05-21T07:50:35.083Z,19.41
2023-05-21T07:51:35.107Z,19.58
2023-05-21T07:52:35.097Z,19.78
2023-05-21T07:53:34.936Z,20.02
2023-05-21T07:54:34.844Z,20.18
2023-05-21T07:55:35.004Z,20.23
2023-05-21T07:56:34.722Z,20.18
2023-05-21T07:57:34.700Z,20.28
2023-05-21T07:58:34.751Z,20.38
2023-05-21T07:59:34.574Z,20.48
2023-05-21T08:00:34.498Z,20.57
2023-05-21T08:01:34.454Z,20.57
2023-05-21T08:02:34.383Z,20.61
2023-05-21T08:03:34.546Z,20.62
2023-05-21T08:04:34.460Z,20.58
2023-05-21T08:05:34.309Z,20.61
2023-05-21T08:06:34.089Z,20.72
2023-05-21T08:07:34.054Z,20.62
2023-05-21T08:08:34.026Z,20.51
2023-05-21T08:09:33.969Z,20.31
2023-05-21T08:10:33.896Z,20.23
2023-05-21T08:11:33.866Z,20.26
2023-05-21T08:12:33.746Z,20.20
2023-05-21T08:13:33.728Z,20.14
2023-05-21T08:14:33.687Z,20.13
2023-05-21T08:15:33.597Z,20.06
2023-05-21T08:16:33.576Z,20.05
2023-05-21T08:17:33.462Z,20.03
2023-05-21T08:18:34.247Z,20.03
2023-05-21T08:19:33.505Z,20.06
2023-05-21T08:20:33.332Z,20.06
2023-05-21T08:21:33.236Z,20.08
2023-05-21T08:22:33.209Z,20.14
2023-05-21T08:23:33.057Z,20.20
2023-05-21T08:24:33.018Z,20.28
2023-05-21T08:25:33.021Z,20.31
2023-05-21T08:26:32.929Z,20.23
2023-05-21T08:27:34.086Z,20.17
2023-05-21T08:28:32.788Z,20.14
2023-05-21T08:29:32.690Z,20.24
2023-05-21T08:30:32.692Z,20.36
2023-05-21T08:31:32.637Z,20.54
2023-05-21T08:32:32.632Z,20.84
2023-05-21T08:33:32.450Z,21.21
2023-05-21T08:34:32.420Z,21.62
2023-05-21T08:35:32.338Z,22.02
2023-05-21T08:36:32.359Z,22.33
2023-05-21T08:37:32.261Z,22.68
2023-05-21T08:38:32.275Z,23.00
2023-05-21T08:39:32.105Z,23.23
2023-05-21T08:40:32.062Z,23.35
2023-05-21T08:41:31.990Z,23.28
2023-05-21T08:42:37.121Z,23.25
2023-05-21T08:43:31.905Z,23.32
2023-05-21T08:44:31.859Z,23.38
2023-05-21T08:45:31.873Z,23.39
2023-05-21T08:46:31.761Z,23.39
2023-05-21T08:47:31.637Z,23.31
2023-05-21T08:48:31.607Z,23.12
2023-05-21T08:49:31.534Z,22.97
2023-05-21T08:50:31.475Z,22.82
2023-05-21T08:51:31.469Z,22.70
2023-05-21T08:52:31.354Z,22.55
2023-05-21T08:53:31.240Z,22.40
2023-05-21T08:54:31.236Z,22.31
2023-05-21T08:55:31.193Z,22.12
2023-05-21T08:56:31.214Z,21.99
2023-05-21T08:57:31.023Z,21.84
2023-05-21T08:58:30.968Z,21.67
2023-05-21T08:59:30.980Z,21.58
2023-05-21T09:00:30.851Z,21.56
2023-05-21T09:01:30.829Z,21.62
2023-05-21T09:02:30.848Z,21.64
2023-05-21T09:03:30.891Z,21.58
2023-05-21T09:04:30.604Z,21.53
2023-05-21T09:05:30.567Z,21.47
2023-05-21T09:06:30.527Z,21.50
2023-05-21T09:07:30.466Z,21.50
2023-05-21T09:08:30.390Z,21.64
2023-05-21T09:09:30.338Z,21.82
2023-05-21T09:10:30.283Z,21.96
2023-05-21T09:11:30.266Z,21.96
2023-05-21T09:12:30.175Z,21.80
2023-05-21T09:13:30.088Z,21.72
2023-05-21T09:14:30.046Z,21.71
2023-05-21T09:15:29.948Z,21.65
2023-05-21T09:16:29.972Z,21.59
2023-05-21T09:17:29.940Z,21.54
2023-05-21T09:18:29.757Z,21.52
2023-05-21T09:19:29.755Z,21.49
2023-05-21T09:20:29.707Z,21.46
2023-05-21T09:21:29.581Z,21.50
2023-05-21T09:22:29.618Z,21.61
2023-05-21T09:23:29.547Z,21.56
2023-05-21T09:24:29.410Z,21.52
2023-05-21T09:25:29.380Z,21.53
2023-05-21T09:26:29.312Z,21.58
2023-05-21T09:27:29.229Z,21.61
2023-05-21T09:28:29.213Z,21.59
2023-05-21T09:29:29.703Z,21.64
2023-05-21T09:30:31.158Z,21.68
2023-05-21T09:31:29.044Z,21.72
2023-05-21T09:32:29.074Z,21.79
2023-05-21T09:33:28.909Z,21.77
2023-05-21T09:34:29.766Z,21.74
2023-05-21T09:35:28.812Z,21.75
2023-05-21T09:36:28.689Z,21.74
2023-05-21T09:37:28.689Z,21.74
2023-05-21T09:38:28.605Z,21.72
2023-05-21T09:39:29.239Z,21.69
2023-05-21T09:40:28.493Z,21.67
2023-05-21T09:41:28.459Z,21.68
2023-05-21T09:42:28.375Z,21.69
2023-05-21T09:43:28.322Z,21.75
2023-05-21T09:44:28.226Z,21.79
2023-05-21T09:45:28.235Z,21.83
2023-05-21T09:46:28.127Z,21.84
2023-05-21T09:47:28.103Z,21.96
2023-05-21T09:48:28.038Z,22.00
2023-05-21T09:49:28.222Z,22.09
2023-05-21T09:50:28.000Z,22.21
2023-05-21T09:51:28.532Z,22.24
2023-05-21T09:52:27.787Z,22.30
2023-05-21T09:53:27.747Z,22.37
2023-05-21T09:54:27.765Z,22.46
2023-05-21T09:55:27.543Z,22.57
2023-05-21T09:56:27.527Z,22.67
2023-05-21T09:57:27.421Z,22.79
2023-05-21T09:58:27.425Z,22.85
2023-05-21T09:59:27.280Z,22.91
2023-05-21T10:00:27.258Z,23.02
2023-05-21T10:01:27.225Z,23.15
2023-05-21T10:02:27.202Z,23.27
2023-05-21T10:03:27.167Z,23.38
2023-05-21T10:04:27.069Z,23.50
2023-05-21T10:05:26.980Z,23.50
2023-05-21T10:06:26.875Z,23.53
2023-05-21T10:07:26.912Z,23.58
2023-05-21T10:08:26.795Z,23.61
2023-05-21T10:09:26.771Z,23.66
2023-05-21T10:10:26.664Z,23.66
2023-05-21T10:11:26.579Z,23.58
2023-05-21T10:12:26.528Z,23.50
2023-05-21T10:13:26.445Z,23.50
2023-05-21T10:14:26.382Z,23.54
2023-05-21T10:15:26.441Z,23.54
2023-05-21T10:16:26.323Z,23.58
2023-05-21T10:17:26.288Z,23.61
2023-05-21T10:18:26.208Z,23.66
2023-05-21T10:19:26.494Z,23.60
2023-05-21T10:20:26.088Z,23.43
2023-05-21T10:21:26.000Z,23.40
2023-05-21T10:22:25.932Z,23.28
2023-05-21T10:23:25.849Z,23.28
2023-05-21T10:24:25.891Z,23.32
2023-05-21T10:25:25.785Z,23.38
2023-05-21T10:26:25.831Z,23.40
2023-05-21T10:27:25.657Z,23.38
2023-05-21T10:28:25.575Z,23.42
2023-05-21T10:29:25.509Z,23.42
2023-05-21T10:30:25.485Z,23.47
2023-05-21T10:31:25.426Z,23.38
2023-05-21T10:32:25.462Z,23.38
2023-05-21T10:33:25.425Z,23.43
2023-05-21T10:34:25.247Z,23.46
2023-05-21T10:35:25.151Z,23.51
2023-05-21T10:36:25.108Z,23.57
2023-05-21T10:37:25.093Z,23.65
2023-05-21T10:38:25.006Z,23.73
2023-05-21T10:39:24.950Z,23.79
2023-05-21T10:40:24.976Z,23.83
2023-05-21T10:41:24.857Z,23.79
2023-05-21T10:42:24.775Z,23.76
2023-05-21T10:43:24.672Z,23.79
2023-05-21T10:44:24.641Z,23.88
2023-05-21T10:45:24.823Z,23.95
2023-05-21T10:46:25.474Z,24.06
2023-05-21T10:47:24.480Z,24.18
2023-05-21T10:48:24.378Z,24.21
2023-05-21T10:49:24.378Z,24.27
2023-05-21T10:50:24.286Z,24.32
2023-05-21T10:51:24.427Z,24.35
2023-05-21T10:52:24.204Z,24.42
2023-05-21T10:53:24.144Z,24.47
2023-05-21T10:54:24.054Z,24.47
2023-05-21T10:55:24.041Z,24.46
2023-05-21T10:56:24.757Z,24.47
2023-05-21T10:57:23.918Z,24.53
2023-05-21T10:58:23.801Z,24.57
2023-05-21T10:59:24.817Z,24.61
2023-05-21T11:00:23.652Z,24.58
2023-05-21T11:01:23.663Z,24.61
2023-05-21T11:02:23.586Z,24.65
2023-05-21T11:03:23.693Z,24.65
2023-05-21T11:04:23.433Z,24.65
2023-05-21T11:05:23.553Z,24.68
2023-05-21T11:06:23.394Z,24.78
2023-05-21T11:07:23.257Z,24.84
2023-05-21T11:08:23.196Z,24.91
2023-05-21T11:09:23.149Z,24.96
2023-05-21T11:10:23.126Z,24.87
2023-05-21T11:11:23.144Z,24.83
2023-05-21T11:12:22.986Z,24.81
2023-05-21T11:13:22.928Z,24.78
2023-05-21T11:14:22.837Z,24.78
2023-05-21T11:15:22.776Z,24.80
2023-05-21T11:16:22.758Z,24.81
2023-05-21T11:17:22.750Z,24.91
2023-05-21T11:18:22.656Z,24.95
2023-05-21T11:19:22.582Z,24.99
2023-05-21T11:20:22.478Z,25.03
2023-05-21T11:21:22.420Z,25.00
2023-05-21T11:22:22.442Z,24.90
2023-05-21T11:23:22.297Z,24.91
2023-05-21T11:24:22.228Z,24.95
2023-05-21T11:25:22.245Z,24.95
2023-05-21T11:26:22.129Z,24.98
2023-05-21T11:27:22.094Z,24.96
2023-05-21T11:28:22.021Z,24.93
2023-05-21T11:29:21.945Z,24.93
2023-05-21T11:30:21.909Z,24.98
2023-05-21T11:31:21.857Z,24.99
2023-05-21T11:32:21.785Z,25.00
2023-05-21T11:33:21.784Z,25.02
2023-05-21T11:34:21.622Z,24.88
2023-05-21T11:35:21.637Z,24.80
2023-05-21T11:36:22.497Z,24.68
2023-05-21T11:37:21.496Z,24.61
2023-05-21T11:38:21.481Z,24.55
2023-05-21T11:39:22.345Z,24.52
2023-05-21T11:40:22.741Z,24.45
2023-05-21T11:41:21.253Z,24.34
2023-05-21T11:42:21.190Z,24.35
2023-05-21T11:43:21.116Z,24.37
2023-05-21T11:44:21.067Z,24.37
2023-05-21T11:45:21.024Z,24.42
2023-05-21T11:46:20.952Z,24.43
2023-05-21T11:47:20.920Z,24.53
2023-05-21T11:48:20.898Z,24.65
2023-05-21T11:49:20.818Z,24.76
2023-05-21T11:50:20.850Z,24.87
2023-05-21T11:51:20.688Z,25.02
2023-05-21T11:52:21.492Z,25.14
2023-05-21T11:53:20.542Z,25.25
2023-05-21T11:54:20.534Z,25.39
2023-05-21T11:55:20.468Z,25.43
2023-05-21T11:56:20.344Z,25.45
2023-05-21T11:57:20.311Z,25.38
2023-05-21T11:58:20.303Z,25.35
2023-05-21T11:59:20.188Z,25.28
2023-05-21T12:00:20.132Z,25.33
2023-05-21T12:01:20.979Z,25.40
2023-05-21T12:02:20.054Z,25.45
2023-05-21T12:03:20.125Z,25.54
2023-05-21T12:04:19.873Z,25.60
2023-05-21T12:05:19.862Z,25.70
2023-05-21T12:06:19.860Z,25.79
2023-05-21T12:07:20.513Z,25.99
2023-05-21T12:08:19.670Z,26.02
2023-05-21T12:09:19.589Z,25.98
2023-05-21T12:10:19.583Z,26.07
2023-05-21T12:11:19.482Z,26.30
2023-05-21T12:12:19.432Z,26.51
2023-05-21T12:13:19.324Z,26.70
2023-05-21T12:14:19.329Z,26.88
2023-05-21T12:15:19.264Z,27.06
2023-05-21T12:16:19.248Z,27.04
2023-05-21T12:17:19.079Z,26.88
2023-05-21T12:18:19.061Z,26.82
2023-05-21T12:19:19.077Z,27.02
2023-05-21T12:20:18.955Z,27.37
2023-05-21T12:21:18.904Z,27.65
2023-05-21T12:22:18.822Z,27.75
2023-05-21T12:23:18.961Z,27.78
2023-05-21T12:24:18.697Z,27.78
2023-05-21T12:25:18.631Z,27.69
2023-05-21T12:26:19.020Z,27.62
2023-05-21T12:27:19.249Z,27.54
2023-05-21T12:28:18.450Z,27.63
2023-05-21T12:29:18.386Z,27.60
2023-05-21T12:30:18.338Z,27.78
2023-05-21T12:31:18.337Z,27.81
2023-05-21T12:32:18.294Z,27.84
2023-05-21T12:33:18.172Z,27.85
2023-05-21T12:34:18.112Z,27.90
2023-05-21T12:35:18.776Z,27.92
2023-05-21T12:36:18.107Z,27.74
2023-05-21T12:37:17.972Z,27.54
2023-05-21T12:38:17.914Z,27.27
2023-05-21T12:39:17.832Z,27.12
2023-05-21T12:40:17.736Z,27.00
2023-05-21T12:41:17.719Z,26.91
2023-05-21T12:42:17.662Z,26.76
2023-05-21T12:43:17.595Z,26.65
2023-05-21T12:44:17.506Z,26.51
2023-05-21T12:45:18.810Z,26.48
2023-05-21T12:46:17.492Z,26.37
2023-05-21T12:47:17.365Z,26.26
2023-05-21T12:48:17.265Z,26.09
2023-05-21T12:49:17.216Z,25.97
2023-05-21T12:50:17.753Z,25.88
2023-05-21T12:51:17.131Z,25.85